Time;durP1;ratioP1;P1;durP2;ratioP2;P2;SDS_P1;SDS_P2;PMS_P1;PMS_P2;Temp;Humidity;BMP_temperature;BMP_pressure;BME280_temperature;BME280_humidity;BME280_pressure;Samples;Min_cycle;Max_cycle;Signal;HPM_P1;HPM_P2
2022/08/30 00:02:13;;;;;;;;;;;;;;;21.08;59.82;101644.75;5056366;28;2654;-63
2022/08/30 00:04:39;;;;;;;;;;;;;;;20.99;59.93;101639.91;5051754;28;2807;-62
2022/08/30 00:07:06;;;;;;;;;;;;;;;20.91;60.24;101640.19;5055374;28;2732;-63
2022/08/30 00:09:32;;;;;;;;;;;;;;;21.00;59.89;101635.63;5053951;28;2953;-63
2022/08/30 00:11:58;;;;;;;;;;;;;;;21.03;60.02;101634.38;5056872;28;2776;-63
2022/08/30 00:14:26;;;;;;;;;;;;;;;20.96;60.08;101638.28;5059235;28;2830;-62
2022/08/30 00:16:52;;;;;;;;;;;;;;;20.62;61.02;101643.59;5053403;28;2590;-63
2022/08/30 00:19:19;;;;;;;;;;;;;;;20.81;60.84;101646.13;5051692;28;2818;-62
2022/08/30 00:21:45;;;;;;;;;;;;;;;20.64;61.05;101652.34;5056623;28;2759;-63
2022/08/30 00:24:11;;;;;;;;;;;;;;;20.53;61.01;101647.34;5058823;28;2872;-62
2022/08/30 00:26:38;;;;;;;;;;;;;;;20.43;61.35;101650.34;5056647;28;2771;-63
2022/08/30 00:29:04;;;;;;;;;;;;;;;20.85;60.20;101648.50;5058477;28;2628;-63
2022/08/30 00:31:30;;;;;;;;;;;;;;;20.81;60.20;101648.25;5057193;28;2673;-63
2022/08/30 00:33:57;;;;;;;;;;;;;;;20.58;60.51;101654.84;5057763;28;3049;-63
2022/08/30 00:36:23;;;;;;;;;;;;;;;20.61;60.82;101653.59;5055002;28;2902;-62
2022/08/30 00:38:49;;;;;;;;;;;;;;;20.70;60.32;101650.53;5056148;28;2946;-62
2022/08/30 00:41:16;;;;;;;;;;;;;;;20.61;60.58;101650.72;5059155;28;2610;-63
2022/08/30 00:43:42;;;;;;;;;;;;;;;20.40;60.94;101643.75;5057613;28;2731;-63
2022/08/30 00:46:09;;;;;;;;;;;;;;;20.40;61.00;101652.38;5055518;28;2728;-63
2022/08/30 00:48:36;;;;;;;;;;;;;;;20.49;60.73;101642.09;5057571;28;3330;-63
2022/08/30 00:51:06;;;;;;;;;;;;;;;20.28;61.11;101643.03;5054960;28;2748;-62
2022/08/30 00:53:36;;;;;;;;;;;;;;;20.33;61.07;101647.66;5056835;28;3196;-63
2022/08/30 00:56:03;;;;;;;;;;;;;;;20.43;60.52;101641.72;5054671;28;3182;-62
2022/08/30 00:58:36;;;;;;;;;;;;;;;20.67;59.85;101651.06;5056203;28;2799;-62
2022/08/30 01:01:03;;;;;;;;;;;;;;;20.74;59.96;101655.78;5060124;28;1698;-62
2022/08/30 01:03:29;;;;;;;;;;;;;;;20.65;59.96;101653.84;5054619;28;2888;-62
2022/08/30 01:05:55;;;;;;;;;;;;;;;20.63;60.21;101656.59;5057736;28;2841;-62
2022/08/30 01:08:22;;;;;;;;;;;;;;;20.45;60.14;101659.13;5055743;28;2903;-62
2022/08/30 01:10:48;;;;;;;;;;;;;;;20.32;60.35;101662.66;5057694;28;2856;-62
2022/08/30 01:13:15;;;;;;;;;;;;;;;20.35;60.29;101659.28;5054277;28;2627;-63
2022/08/30 01:15:41;;;;;;;;;;;;;;;20.38;60.34;101658.00;5055097;28;2965;-63
2022/08/30 01:18:10;;;;;;;;;;;;;;;20.32;60.60;101656.91;5061772;28;2863;-63
2022/08/30 01:20:53;;;;;;;;;;;;;;;20.27;60.35;101662.44;5054689;28;2691;-63
2022/08/30 01:23:19;;;;;;;;;;;;;;;20.40;60.18;101663.13;5053079;28;2859;-63
2022/08/30 01:25:46;;;;;;;;;;;;;;;20.55;59.98;101668.34;5056852;28;2661;-63
2022/08/30 01:28:14;;;;;;;;;;;;;;;20.38;60.33;101666.63;5053500;28;3319;-62
2022/08/30 01:30:41;;;;;;;;;;;;;;;20.38;59.82;101660.88;5053017;28;2783;-63
2022/08/30 01:33:08;;;;;;;;;;;;;;;20.16;60.61;101656.69;5052434;28;2748;-63
2022/08/30 01:35:43;;;;;;;;;;;;;;;20.16;60.80;101659.56;5050369;28;2834;-63
2022/08/30 01:38:09;;;;;;;;;;;;;;;20.36;60.32;101660.00;5057794;28;2764;-63
2022/08/30 01:40:36;;;;;;;;;;;;;;;20.44;60.30;101663.38;5054386;28;2783;-63
2022/08/30 01:43:02;;;;;;;;;;;;;;;20.56;60.16;101663.34;5058218;28;2927;-63
2022/08/30 01:45:29;;;;;;;;;;;;;;;20.55;60.06;101662.59;5056933;28;2826;-63
2022/08/30 01:47:55;;;;;;;;;;;;;;;20.38;60.07;101655.13;5053789;28;2854;-63
2022/08/30 01:50:25;;;;;;;;;;;;;;;20.33;60.26;101659.16;5056269;28;3117;-63
2022/08/30 01:52:51;;;;;;;;;;;;;;;20.42;60.29;101652.50;5056620;28;2836;-63
2022/08/30 01:55:18;;;;;;;;;;;;;;;20.64;59.90;101652.34;5056478;28;2765;-62
2022/08/30 01:57:45;;;;;;;;;;;;;;;20.53;59.85;101650.22;5057032;28;2874;-63
2022/08/30 02:00:12;;;;;;;;;;;;;;;20.39;60.35;101655.91;5055756;28;2799;-62
2022/08/30 02:02:38;;;;;;;;;;;;;;;20.26;60.60;101660.16;5055168;28;2938;-63
2022/08/30 02:05:05;;;;;;;;;;;;;;;20.25;60.44;101659.44;5057594;28;2669;-62
2022/08/30 02:07:32;;;;;;;;;;;;;;;20.29;60.50;101653.94;5053746;28;2729;-63
2022/08/30 02:09:58;;;;;;;;;;;;;;;20.35;60.37;101662.16;5054983;28;3013;-63
2022/08/30 02:12:24;;;;;;;;;;;;;;;20.40;60.38;101658.13;5056834;28;2891;-62
2022/08/30 02:14:51;;;;;;;;;;;;;;;20.30;60.72;101657.53;5055606;28;2907;-63
2022/08/30 02:17:18;;;;;;;;;;;;;;;20.34;60.41;101654.13;5053028;28;2756;-62
2022/08/30 02:19:44;;;;;;;;;;;;;;;20.55;60.09;101656.06;5056331;28;3116;-62
2022/08/30 02:22:10;;;;;;;;;;;;;;;20.38;60.09;101643.63;5056816;28;2822;-62
2022/08/30 02:24:37;;;;;;;;;;;;;;;20.16;60.51;101650.94;5055130;28;2812;-62
2022/08/30 02:27:03;;;;;;;;;;;;;;;20.34;60.10;101651.25;5055038;28;2779;-63
2022/08/30 02:29:30;;;;;;;;;;;;;;;20.46;60.21;101655.63;5057116;28;2740;-62
2022/08/30 02:31:56;;;;;;;;;;;;;;;20.48;59.87;101649.97;5056195;28;2799;-62
2022/08/30 02:34:22;;;;;;;;;;;;;;;20.45;60.02;101656.97;5055976;28;2678;-62
2022/08/30 02:36:49;;;;;;;;;;;;;;;20.37;60.09;101647.88;5051660;28;2886;-62
2022/08/30 02:39:15;;;;;;;;;;;;;;;20.46;60.05;101655.63;5055897;28;2823;-62
2022/08/30 02:41:42;;;;;;;;;;;;;;;20.36;60.52;101652.13;5055647;28;3157;-63
2022/08/30 02:44:09;;;;;;;;;;;;;;;20.21;60.69;101646.94;5054030;28;2615;-62
2022/08/30 02:46:35;;;;;;;;;;;;;;;20.18;60.88;101643.19;5056833;28;2779;-63
2022/08/30 02:49:02;;;;;;;;;;;;;;;20.30;60.77;101649.66;5054982;28;2867;-62
2022/08/30 02:51:48;;;;;;;;;;;;;;;20.25;60.72;101647.19;5054369;28;2863;-62
2022/08/30 02:54:18;;;;;;;;;;;;;;;20.22;60.86;101648.41;5053155;28;2934;-62
2022/08/30 02:56:46;;;;;;;;;;;;;;;20.15;60.98;101643.69;5054051;28;2886;-62
2022/08/30 02:59:12;;;;;;;;;;;;;;;20.25;60.54;101644.31;5050035;28;2664;-63
2022/08/30 03:01:39;;;;;;;;;;;;;;;20.05;61.17;101643.84;5052056;28;2878;-62
2022/08/30 03:04:05;;;;;;;;;;;;;;;20.06;61.04;101648.94;5051994;28;2736;-62
2022/08/30 03:06:32;;;;;;;;;;;;;;;20.15;60.58;101652.31;5049122;28;2763;-62
2022/08/30 03:08:58;;;;;;;;;;;;;;;20.28;60.46;101651.66;5055134;28;2996;-62
2022/08/30 03:11:25;;;;;;;;;;;;;;;20.08;60.69;101654.81;5056130;28;2843;-62
2022/08/30 03:13:51;;;;;;;;;;;;;;;20.30;60.00;101646.78;5055782;28;2866;-62
2022/08/30 03:16:18;;;;;;;;;;;;;;;20.21;60.31;101646.94;5054455;28;2725;-62
2022/08/30 03:18:44;;;;;;;;;;;;;;;19.93;60.87;101646.72;5053793;28;2870;-63
2022/08/30 03:21:11;;;;;;;;;;;;;;;20.07;60.53;101650.44;5053127;28;2870;-63
2022/08/30 03:23:39;;;;;;;;;;;;;;;20.09;60.35;101646.97;5056902;28;2543;-62
2022/08/30 03:26:06;;;;;;;;;;;;;;;20.02;60.64;101647.94;5055191;28;2593;-63
2022/08/30 03:28:32;;;;;;;;;;;;;;;19.91;60.93;101646.59;5055949;28;2673;-62
2022/08/30 03:30:59;;;;;;;;;;;;;;;19.95;60.80;101649.72;5054283;28;2833;-62
2022/08/30 03:33:25;;;;;;;;;;;;;;;19.94;60.85;101653.97;5055490;28;3193;-62
2022/08/30 03:35:52;;;;;;;;;;;;;;;19.76;61.46;101655.72;5051294;28;2847;-63
2022/08/30 03:38:18;;;;;;;;;;;;;;;19.76;61.55;101656.47;5054980;28;2855;-62
2022/08/30 03:40:45;;;;;;;;;;;;;;;19.88;61.38;101656.47;5055011;28;2859;-63
2022/08/30 03:43:11;;;;;;;;;;;;;;;19.92;61.06;101656.72;5052507;28;2713;-62
2022/08/30 03:45:38;;;;;;;;;;;;;;;19.99;60.96;101654.97;5053868;28;2887;-62
2022/08/30 03:48:04;;;;;;;;;;;;;;;19.94;60.91;101659.72;5060350;28;2737;-62
2022/08/30 03:50:31;;;;;;;;;;;;;;;19.93;60.70;101663.97;5060196;28;2680;-63
2022/08/30 03:53:00;;;;;;;;;;;;;;;19.80;61.21;101667.47;5059962;28;2783;-62
2022/08/30 03:55:27;;;;;;;;;;;;;;;19.71;61.35;101671.22;5059461;28;2995;-62
2022/08/30 03:57:53;;;;;;;;;;;;;;;19.74;61.08;101669.97;5060051;28;3033;-63
2022/08/30 04:00:21;;;;;;;;;;;;;;;19.89;60.92;101675.22;5060000;28;2843;-63
2022/08/30 04:02:47;;;;;;;;;;;;;;;19.79;60.82;101678.22;5056749;28;2831;-62
2022/08/30 04:05:13;;;;;;;;;;;;;;;19.80;60.85;101679.72;5059926;28;2716;-62
2022/08/30 04:07:44;;;;;;;;;;;;;;;19.82;60.69;101676.22;5057479;28;3903;-62
2022/08/30 04:10:10;;;;;;;;;;;;;;;19.80;60.85;101679.72;5060534;28;2854;-63
2022/08/30 04:12:37;;;;;;;;;;;;;;;20.06;60.17;101683.44;5056325;28;2828;-62
2022/08/30 04:15:04;;;;;;;;;;;;;;;20.46;59.07;101678.63;5059149;28;2586;-63
2022/08/30 04:17:30;;;;;;;;;;;;;;;20.11;59.68;101678.69;5054449;28;2771;-63
2022/08/30 04:19:57;;;;;;;;;;;;;;;19.88;61.14;101683.09;5060379;28;2825;-62
2022/08/30 04:22:23;;;;;;;;;;;;;;;19.46;62.51;101681.16;5056751;28;2743;-63
2022/08/30 04:24:49;;;;;;;;;;;;;;;19.23;63.49;101676.84;5058593;28;2906;-65
2022/08/30 04:27:19;;;;;;;;;;;;;;;19.08;63.70;101680.22;5057574;28;2780;-62
2022/08/30 04:29:46;;;;;;;;;;;;;;;19.02;63.89;101682.69;5058851;28;2835;-63
2022/08/30 04:32:12;;;;;;;;;;;;;;;18.88;64.32;101678.88;5059598;28;3125;-63
2022/08/30 04:34:38;;;;;;;;;;;;;;;18.91;64.41;101675.50;5059573;28;2775;-63
2022/08/30 04:37:05;;;;;;;;;;;;;;;18.88;64.76;101687.50;5056137;28;2867;-59
2022/08/30 04:39:35;;;;;;;;;;;;;;;18.91;64.45;101686.25;5057656;28;3246;-61
2022/08/30 04:42:02;;;;;;;;;;;;;;;18.77;64.45;101686.81;5055562;28;3243;-61
2022/08/30 04:44:28;;;;;;;;;;;;;;;18.74;64.65;101673.69;5059637;28;3136;-61
2022/08/30 04:46:55;;;;;;;;;;;;;;;18.78;64.71;101682.59;5052608;28;2997;-61
2022/08/30 04:49:21;;;;;;;;;;;;;;;18.70;64.64;101687.75;5051455;28;2628;-61
2022/08/30 04:51:48;;;;;;;;;;;;;;;18.69;64.76;101689.13;5055884;28;2867;-61
2022/08/30 04:54:14;;;;;;;;;;;;;;;18.69;64.83;101683.41;5056657;28;2716;-61
2022/08/30 04:56:42;;;;;;;;;;;;;;;18.78;64.91;101688.34;5057265;28;2796;-61
2022/08/30 04:59:08;;;;;;;;;;;;;;;18.78;65.31;101691.19;5058826;28;2871;-61
2022/08/30 05:01:35;;;;;;;;;;;;;;;18.87;65.42;101691.72;5056289;28;2795;-61
2022/08/30 05:04:11;;;;;;;;;;;;;;;18.91;65.70;101697.72;5056344;28;2875;-65
2022/08/30 05:06:37;;;;;;;;;;;;;;;19.09;65.38;101696.06;5056511;28;2792;-63
2022/08/30 05:09:04;;;;;;;;;;;;;;;18.98;65.86;101691.00;5057169;28;2797;-63
2022/08/30 05:11:30;;;;;;;;;;;;;;;18.94;66.38;101697.22;5060533;28;1704;-63
2022/08/30 05:13:57;;;;;;;;;;;;;;;18.97;66.67;101689.53;5057608;28;2858;-64
2022/08/30 05:16:23;;;;;;;;;;;;;;;19.04;66.48;101694.28;5058399;28;2826;-64
2022/08/30 05:18:50;;;;;;;;;;;;;;;19.05;66.84;101701.53;5057003;28;2791;-64
2022/08/30 05:21:20;;;;;;;;;;;;;;;19.09;66.84;101707.53;5055410;28;2655;-63
2022/08/30 05:23:47;;;;;;;;;;;;;;;19.12;67.23;101706.28;5056618;28;2776;-64
2022/08/30 05:26:14;;;;;;;;;;;;;;;19.10;67.53;101714.03;5058988;28;2614;-63
2022/08/30 05:28:41;;;;;;;;;;;;;;;19.12;67.54;101717.78;5052790;28;2874;-64
2022/08/30 05:31:11;;;;;;;;;;;;;;;19.13;67.79;101712.81;5056162;28;3141;-64
2022/08/30 05:33:39;;;;;;;;;;;;;;;19.10;67.95;101714.75;5057532;28;2875;-63
2022/08/30 05:36:06;;;;;;;;;;;;;;;19.33;67.51;101719.09;5056735;28;3004;-59
2022/08/30 05:38:32;;;;;;;;;;;;;;;20.29;67.37;101722.19;5051507;28;3169;-60
2022/08/30 05:40:58;;;;;;;;;;;;;;;20.87;64.20;101721.31;5045404;28;3856;-61
2022/08/30 05:43:25;;;;;;;;;;;;;;;21.16;63.11;101722.94;5055733;28;2834;-60
2022/08/30 05:46:01;;;;;;;;;;;;;;;21.30;62.14;101723.00;5056066;28;2736;-61
2022/08/30 05:48:28;;;;;;;;;;;;;;;21.36;61.96;101722.59;5044692;28;2753;-62
2022/08/30 05:51:01;;;;;;;;;;;;;;;21.36;61.85;101725.47;5037130;28;2869;-66
2022/08/30 05:53:28;;;;;;;;;;;;;;;21.30;62.02;101726.66;5055145;28;2772;-64
2022/08/30 05:55:54;;;;;;;;;;;;;;;21.30;62.11;101726.66;5057314;28;3111;-64
2022/08/30 05:58:20;;;;;;;;;;;;;;;21.37;62.04;101724.09;5056430;28;2904;-64
2022/08/30 06:00:47;;;;;;;;;;;;;;;21.40;61.72;101725.72;5058216;28;2903;-64
2022/08/30 06:03:13;;;;;;;;;;;;;;;21.42;61.93;101723.72;5058087;28;2844;-63
2022/08/30 06:05:40;;;;;;;;;;;;;;;21.43;62.05;101727.34;5053123;28;2897;-63
2022/08/30 06:08:06;;;;;;;;;;;;;;;21.40;62.15;101725.72;5057449;28;2896;-64
2022/08/30 06:10:32;;;;;;;;;;;;;;;21.34;62.84;101729.72;5054217;28;3492;-65
2022/08/30 06:12:59;;;;;;;;;;;;;;;21.30;63.11;101723.78;5057104;28;2789;-65
2022/08/30 06:15:25;;;;;;;;;;;;;;;21.28;63.33;101723.66;5058008;28;2754;-63
2022/08/30 06:17:52;;;;;;;;;;;;;;;21.24;63.81;101734.94;5056193;28;3003;-65
2022/08/30 06:20:19;;;;;;;;;;;;;;;21.18;64.19;101731.69;5059365;28;2869;-66
2022/08/30 06:22:45;;;;;;;;;;;;;;;21.20;64.59;101731.09;5059534;28;2817;-66
2022/08/30 06:25:12;;;;;;;;;;;;;;;21.17;64.66;101738.84;5057251;28;2976;-66
2022/08/30 06:27:38;;;;;;;;;;;;;;;21.19;64.88;101733.22;5059193;28;2669;-65
2022/08/30 06:30:07;;;;;;;;;;;;;;;21.20;64.99;101737.59;5058532;28;2848;-64
2022/08/30 06:32:33;;;;;;;;;;;;;;;21.29;64.82;101736.66;5058918;28;2708;-62
2022/08/30 06:35:00;;;;;;;;;;;;;;;21.38;64.76;101737.13;5056416;28;2853;-63
2022/08/30 06:37:26;;;;;;;;;;;;;;;21.38;65.45;101742.88;5054124;28;2935;-63
2022/08/30 06:39:56;;;;;;;;;;;;;;;21.32;65.35;101752.66;5055161;28;3042;-64
2022/08/30 06:42:23;;;;;;;;;;;;;;;21.66;65.00;101747.38;5050342;28;2980;-65
2022/08/30 06:44:49;;;;;;;;;;;;;;;21.85;64.54;101748.38;5049037;28;4046;-63
2022/08/30 06:47:16;;;;;;;;;;;;;;;21.26;65.43;101748.72;5052916;28;2949;-65
2022/08/30 06:49:43;;;;;;;;;;;;;;;21.51;65.44;101750.88;5052250;28;3091;-63
2022/08/30 06:52:09;;;;;;;;;;;;;;;21.64;65.19;101741.50;5050953;28;3252;-67
2022/08/30 06:54:36;;;;;;;;;;;;;;;21.55;65.12;101736.66;5053936;28;2939;-76
2022/08/30 06:57:02;;;;;;;;;;;;;;;21.85;64.80;101748.38;5054316;28;3000;-87
2022/08/30 06:59:30;;;;;;;;;;;;;;;21.48;65.69;101740.59;5055181;28;2916;-79
2022/08/30 07:01:56;;;;;;;;;;;;;;;21.31;66.38;101747.56;5055798;28;3013;-77
2022/08/30 07:04:23;;;;;;;;;;;;;;;21.26;66.66;101748.72;5052430;28;2995;-73
2022/08/30 07:06:49;;;;;;;;;;;;;;;21.20;67.26;101746.22;5054612;28;4478;-77
2022/08/30 07:09:16;;;;;;;;;;;;;;;21.72;66.31;101744.09;5057591;28;2879;-76
2022/08/30 07:11:43;;;;;;;;;;;;;;;21.85;65.44;101745.47;5049451;28;3093;-71
2022/08/30 07:14:09;;;;;;;;;;;;;;;21.93;65.37;101743.78;5054242;28;2960;-71
2022/08/30 07:16:36;;;;;;;;;;;;;;;21.94;65.51;101756.84;5053285;28;3012;-72
2022/08/30 07:19:03;;;;;;;;;;;;;;;21.97;65.11;101760.56;5057726;28;2890;-75
2022/08/30 07:21:33;;;;;;;;;;;;;;;22.01;65.01;101755.00;5056764;28;2757;-76
2022/08/30 07:23:59;;;;;;;;;;;;;;;21.93;65.48;101743.78;5050494;28;2908;-67
2022/08/30 07:26:32;;;;;;;;;;;;;;;21.79;65.94;101745.16;5058900;28;2818;-73
2022/08/30 07:28:59;;;;;;;;;;;;;;;21.61;66.28;101747.78;5060391;28;2963;-71
2022/08/30 07:31:25;;;;;;;;;;;;;;;21.95;65.67;101754.69;5059074;28;1890;-79
2022/08/30 07:33:52;;;;;;;;;;;;;;;22.11;64.78;101752.69;5056231;28;2754;-71
2022/08/30 07:36:18;;;;;;;;;;;;;;;21.89;65.41;101755.09;5049331;28;2513;-72
2022/08/30 07:38:44;;;;;;;;;;;;;;;21.74;65.76;101761.50;5046475;28;2601;-67
2022/08/30 07:41:21;;;;;;;;;;;;;;;21.66;66.52;101755.28;5058731;28;2524;-76
2022/08/30 07:43:48;;;;;;;;;;;;;;;21.52;67.14;101758.13;5053258;28;2931;-78
2022/08/30 07:46:14;;;;;;;;;;;;;;;21.56;66.98;101769.88;5051564;28;3003;-73
2022/08/30 07:48:41;;;;;;;;;;;;;;;21.59;66.81;101767.84;5053989;28;3070;-81
2022/08/30 07:51:10;;;;;;;;;;;;;;;21.61;66.43;101768.72;5056158;28;2834;-83
2022/08/30 07:53:37;;;;;;;;;;;;;;;21.59;66.63;101771.47;5051043;28;2908;-82
2022/08/30 07:56:04;;;;;;;;;;;;;;;21.58;66.67;101778.63;5046511;28;3292;-78
2022/08/30 07:58:30;;;;;;;;;;;;;;;21.66;66.85;101766.81;5055552;28;2929;-76
2022/08/30 08:00:58;;;;;;;;;;;;;;;21.44;67.93;101775.72;5055037;28;2851;-76
2022/08/30 08:03:25;;;;;;;;;;;;;;;21.33;68.28;101771.47;5058286;28;2466;-78
2022/08/30 08:05:52;;;;;;;;;;;;;;;21.30;68.47;101771.97;5056277;28;2790;-78
2022/08/30 08:08:18;;;;;;;;;;;;;;;21.24;68.98;101769.50;5048924;28;2965;-78
2022/08/30 08:10:45;;;;;;;;;;;;;;;21.23;68.99;101767.25;5049937;28;3667;-77
2022/08/30 08:13:11;;;;;;;;;;;;;;;21.22;69.45;101772.28;5052491;28;3715;-76
2022/08/30 08:15:37;;;;;;;;;;;;;;;21.29;69.21;101771.22;5049958;28;3414;-73
2022/08/30 08:18:04;;;;;;;;;;;;;;;21.29;68.68;101771.22;5055285;28;3049;-72
2022/08/30 08:20:31;;;;;;;;;;;;;;;21.32;68.64;101766.31;5052932;28;2773;-72
2022/08/30 08:22:57;;;;;;;;;;;;;;;21.30;68.90;101764.09;5056064;28;2863;-72
2022/08/30 08:25:24;;;;;;;;;;;;;;;21.32;69.18;101769.94;5056197;28;3054;-72
2022/08/30 08:27:50;;;;;;;;;;;;;;;21.29;69.36;101779.88;5055207;28;2776;-74
2022/08/30 08:30:18;;;;;;;;;;;;;;;21.34;68.83;101778.72;5055357;28;3093;-72
2022/08/30 08:32:44;;;;;;;;;;;;;;;21.30;69.23;101784.25;5054686;28;3382;-67
2022/08/30 08:35:10;;;;;;;;;;;;;;;21.40;68.54;101797.75;5055575;28;2808;-75
2022/08/30 08:37:37;;;;;;;;;;;;;;;21.44;68.26;101793.00;5057413;28;2765;-74
2022/08/30 08:40:04;;;;;;;;;;;;;;;21.42;67.62;101795.03;5055593;28;3733;-80
2022/08/30 08:42:39;;;;;;;;;;;;;;;21.45;67.76;101793.75;5051430;28;2855;-65
2022/08/30 08:45:09;;;;;;;;;;;;;;;21.46;67.45;101798.88;5056046;28;3639;-80
2022/08/30 08:47:40;;;;;;;;;;;;;;;21.47;67.41;101790.97;5056156;28;3793;-74
2022/08/30 08:50:10;;;;;;;;;;;;;;;21.46;67.34;101796.00;5058051;28;2752;-74
2022/08/30 08:55:32;;;;;;;;;;;;;;;21.44;66.77;101798.00;5054632;28;3549;-80
2022/08/30 08:57:58;;;;;;;;;;;;;;;21.45;66.98;101800.25;5057261;28;3642;-74
2022/08/30 09:00:24;;;;;;;;;;;;;;;21.45;66.89;101805.25;5059373;28;3559;-74
2022/08/30 09:02:58;;;;;;;;;;;;;;;21.44;66.94;101807.41;5063365;28;3634;-80
2022/08/30 09:05:26;;;;;;;;;;;;;;;21.48;66.89;101798.22;5056243;28;3929;-80
2022/08/30 09:08:04;;;;;;;;;;;;;;;21.53;66.90;101799.94;5060644;28;3662;-77
2022/08/30 09:10:35;;;;;;;;;;;;;;;21.51;66.55;101791.22;5067014;28;3460;-81
2022/08/30 09:13:16;;;;;;;;;;;;;;;21.51;66.22;101797.72;5069095;28;3474;-77
2022/08/30 09:15:44;;;;;;;;;;;;;;;21.50;66.49;101795.47;5066968;28;3670;-76
2022/08/30 09:18:14;;;;;;;;;;;;;;;21.50;66.24;101801.22;5065406;28;3515;-75
2022/08/30 09:20:47;;;;;;;;;;;;;;;21.52;66.32;101813.63;5064922;28;3684;-75
2022/08/30 09:23:14;;;;;;;;;;;;;;;21.50;66.18;101807.00;5068191;28;3789;-78
2022/08/30 09:25:53;;;;;;;;;;;;;;;21.49;65.97;101811.28;5073052;28;1840;-75
2022/08/30 09:28:20;;;;;;;;;;;;;;;21.50;65.84;101813.50;5063106;28;3398;-82
2022/08/30 09:31:16;;;;;;;;;;;;;;;21.51;65.84;101808.50;5061608;28;3507;-78
2022/08/30 09:34:00;;;;;;;;;;;;;;;21.51;65.58;101815.00;5048656;28;3440;-77
2022/08/30 09:36:27;;;;;;;;;;;;;;;21.53;65.33;101811.47;5061898;28;3648;-82
2022/08/30 09:39:00;;;;;;;;;;;;;;;21.54;65.12;101807.97;5056961;28;2681;-76
2022/08/30 09:41:36;;;;;;;;;;;;;;;21.57;65.17;101808.84;5061247;28;3649;-81
2022/08/30 09:44:04;;;;;;;;;;;;;;;21.58;65.00;101815.34;5064085;28;2641;-76
2022/08/30 09:46:30;;;;;;;;;;;;;;;21.61;64.93;101814.81;5059984;28;2756;-78
2022/08/30 09:48:57;;;;;;;;;;;;;;;21.64;65.01;101810.66;5059781;28;3692;-77
2022/08/30 09:51:31;;;;;;;;;;;;;;;21.67;64.67;101803.66;5059930;28;3708;-78
2022/08/30 09:54:00;;;;;;;;;;;;;;;21.67;64.60;101809.41;5059566;28;2753;-78
2022/08/30 09:57:04;;;;;;;;;;;;;;;21.69;64.24;101812.41;5054942;28;3587;-84
2022/08/30 09:59:58;;;;;;;;;;;;;;;21.71;64.19;101814.66;5057976;28;3847;-76
2022/08/30 10:02:40;;;;;;;;;;;;;;;21.73;64.18;101801.09;5058778;28;3610;-77
2022/08/30 10:05:21;;;;;;;;;;;;;;;21.75;64.04;101804.09;5061066;28;3672;-82
2022/08/30 10:07:57;;;;;;;;;;;;;;;21.75;64.03;101798.31;5056423;28;3665;-77
2022/08/30 10:10:26;;;;;;;;;;;;;;;21.78;63.87;101798.44;5055542;28;3638;-77
2022/08/30 10:12:56;;;;;;;;;;;;;;;21.79;63.88;101797.06;5058345;28;3858;-76
2022/08/30 10:15:34;;;;;;;;;;;;;;;21.81;64.05;101814.47;5059690;28;3621;-77
2022/08/30 10:18:03;;;;;;;;;;;;;;;21.83;64.08;101803.81;5058218;28;3879;-74
2022/08/30 10:20:32;;;;;;;;;;;;;;;21.80;63.76;101801.44;5051199;28;3528;-74
2022/08/30 10:23:01;;;;;;;;;;;;;;;21.77;63.26;101805.59;5055238;28;3751;-82
2022/08/30 10:25:41;;;;;;;;;;;;;;;21.66;62.98;101802.13;5063713;28;2005;-75
2022/08/30 10:28:27;;;;;;;;;;;;;;;21.61;63.18;101805.44;5053882;28;3634;-80
2022/08/30 10:30:55;;;;;;;;;;;;;;;21.61;62.36;101799.69;5054070;28;3611;-78
2022/08/30 10:33:29;;;;;;;;;;;;;;;21.62;62.25;101796.13;5052552;28;3650;-80
2022/08/30 10:35:57;;;;;;;;;;;;;;;21.64;61.92;101801.28;5056158;28;3808;-73
2022/08/30 10:38:28;;;;;;;;;;;;;;;21.64;62.10;101795.50;5052773;28;3691;-78
2022/08/30 10:41:12;;;;;;;;;;;;;;;21.61;61.84;101791.78;5052502;28;3677;-75
2022/08/30 10:43:38;;;;;;;;;;;;;;;21.63;61.67;101789.00;5054955;28;3577;-79
2022/08/30 10:46:07;;;;;;;;;;;;;;;21.62;61.58;101783.88;5055080;28;3701;-75
2022/08/30 10:48:36;;;;;;;;;;;;;;;21.63;61.16;101786.13;5051063;28;3638;-81
2022/08/30 10:51:07;;;;;;;;;;;;;;;21.66;61.23;101781.97;5061373;28;2945;-76
2022/08/30 10:53:41;;;;;;;;;;;;;;;21.73;60.81;101783.03;5052164;28;3648;-76
2022/08/30 10:56:09;;;;;;;;;;;;;;;21.82;61.14;101784.25;5054487;28;2783;-68
2022/08/30 10:58:38;;;;;;;;;;;;;;;21.92;60.68;101784.78;5053251;28;2887;-74
2022/08/30 11:01:11;;;;;;;;;;;;;;;21.97;60.77;101783.66;5053012;28;3441;-73
2022/08/30 11:04:09;;;;;;;;;;;;;;;21.95;61.08;101769.84;5050756;28;3351;-77
2022/08/30 11:06:41;;;;;;;;;;;;;;;21.99;61.11;101783.00;5041469;28;4926;-69
2022/08/30 11:09:13;;;;;;;;;;;;;;;22.36;60.54;101777.81;5057720;28;2708;-74
2022/08/30 11:11:51;;;;;;;;;;;;;;;22.61;59.59;101775.44;5056522;28;2856;-73
2022/08/30 11:14:17;;;;;;;;;;;;;;;22.48;59.97;101783.50;5054468;28;3218;-78
2022/08/30 11:16:47;;;;;;;;;;;;;;;22.38;59.84;101777.94;5059126;28;2924;-76
2022/08/30 11:19:25;;;;;;;;;;;;;;;22.39;60.10;101775.78;5060583;28;3031;-76
2022/08/30 11:21:51;;;;;;;;;;;;;;;22.41;60.00;101767.25;5058831;28;2788;-83
2022/08/30 11:24:20;;;;;;;;;;;;;;;22.45;59.94;101775.34;5058525;28;2799;-73
2022/08/30 11:26:47;;;;;;;;;;;;;;;22.59;59.91;101773.22;5060588;28;2752;-76
2022/08/30 11:29:26;;;;;;;;;;;;;;;22.56;60.33;101760.84;5058758;28;2832;-70
2022/08/30 11:31:56;;;;;;;;;;;;;;;22.59;59.76;101759.53;5054890;28;3027;-68
2022/08/30 11:34:42;;;;;;;;;;;;;;;22.56;59.92;101760.06;5049799;28;4074;-73
2022/08/30 11:37:24;;;;;;;;;;;;;;;22.53;60.19;101755.59;5051995;28;4495;-69
2022/08/30 11:39:51;;;;;;;;;;;;;;;22.62;60.44;101754.59;5052068;28;4332;-65
2022/08/30 11:42:23;;;;;;;;;;;;;;;22.85;59.83;101750.72;5054848;28;3198;-66
2022/08/30 11:45:13;;;;;;;;;;;;;;;22.82;59.92;101745.50;5055129;28;2684;-78
2022/08/30 11:47:46;;;;;;;;;;;;;;;23.07;59.25;101744.59;5053406;28;2837;-66
2022/08/30 11:50:25;;;;;;;;;;;;;;;23.02;59.54;101746.53;5056999;28;2956;-62
2022/08/30 11:52:57;;;;;;;;;;;;;;;23.06;59.61;101740.19;5058466;28;1611;-63
2022/08/30 11:55:25;;;;;;;;;;;;;;;23.03;59.33;101727.81;5053841;28;2949;-63
2022/08/30 11:58:04;;;;;;;;;;;;;;;23.13;59.54;101736.22;5056548;28;2991;-65
2022/08/30 12:00:32;;;;;;;;;;;;;;;23.19;59.13;101736.50;5060458;28;2975;-64
2022/08/30 12:03:04;;;;;;;;;;;;;;;23.20;59.15;101733.00;5055766;28;3008;-63
2022/08/30 12:05:37;;;;;;;;;;;;;;;23.24;59.14;101738.19;5054738;28;2937;-62
2022/08/30 12:08:07;;;;;;;;;;;;;;;23.27;58.96;101730.38;5058015;28;3074;-62
2022/08/30 12:10:44;;;;;;;;;;;;;;;23.27;59.04;101736.16;5058030;28;3308;-60
2022/08/30 12:13:30;;;;;;;;;;;;;;;23.29;58.98;101737.00;5060631;28;1578;-58
2022/08/30 12:16:02;;;;;;;;;;;;;;;23.33;59.07;101727.78;5054513;28;3641;-60
2022/08/30 12:18:31;;;;;;;;;;;;;;;23.55;58.67;101725.22;5056877;28;2961;-60
2022/08/30 12:21:07;;;;;;;;;;;;;;;23.88;57.68;101723.84;5059607;28;2985;-60
2022/08/30 12:23:53;;;;;;;;;;;;;;;23.94;57.44;101719.09;5056486;28;2985;-60
2022/08/30 12:26:19;;;;;;;;;;;;;;;23.97;57.10;101722.81;5059550;28;2949;-59
2022/08/30 12:28:47;;;;;;;;;;;;;;;23.91;57.36;101719.63;5061240;28;1900;-61
2022/08/30 12:31:16;;;;;;;;;;;;;;;24.10;56.85;101721.19;5060833;28;1786;-61
2022/08/30 12:33:43;;;;;;;;;;;;;;;23.93;57.27;101722.63;5058842;28;1667;-61
2022/08/30 12:36:14;;;;;;;;;;;;;;;23.91;57.18;101713.84;5057927;28;1711;-63
2022/08/30 12:38:40;;;;;;;;;;;;;;;23.95;57.39;101719.81;5061197;28;2898;-62
2022/08/30 12:41:07;;;;;;;;;;;;;;;23.92;57.01;101721.16;5061393;28;1576;-64
2022/08/30 12:43:35;;;;;;;;;;;;;;;23.94;57.17;101715.44;5055030;28;1976;-63
2022/08/30 12:46:07;;;;;;;;;;;;;;;24.00;56.89;101721.50;5059403;28;1926;-63
2022/08/30 12:48:37;;;;;;;;;;;;;;;24.01;57.04;101714.31;5057145;28;1760;-61
2022/08/30 12:51:06;;;;;;;;;;;;;;;24.02;57.08;101713.66;5059023;28;1605;-60
2022/08/30 12:53:37;;;;;;;;;;;;;;;24.00;57.07;101716.44;5059410;28;1851;-61
2022/08/30 12:56:05;;;;;;;;;;;;;;;24.01;57.18;101708.53;5060867;28;1647;-61
2022/08/30 12:58:34;;;;;;;;;;;;;;;23.95;57.42;101708.25;5060867;28;1914;-61
2022/08/30 13:01:18;;;;;;;;;;;;;;;23.99;57.48;101700.50;5058793;28;1599;-61